Tara — XUAB3 — position and weather

sailwx.info

Track history (hours):
 
Tides and Currents Weather Stations Pressure Air Temp Water Temp Dewpoint Dewpoint Depression Visibility Wind Speed Wind Dir Waves Ship Positions

Tara

Last reported at 2015-Jul-01 11:34 UTC. Time now 2015-Jul-08 06:34 UTC.
Position N 34°48' E 034°26'.

Length 82 m; draft 7 m.

Type: Ship. MMSI: 515410000.

Date/timePositionNaut miles runAvg speedWind from/ knotsBaromVisibWave heightAir tempDewpointWater temp
2015-Jul-01 11:34N 34°48' E 034°26'20 9.6
2015-Jul-01 09:26N 34°45' E 034°01'31 9.3
2015-Jul-01 06:04N 34°40' E 033°24'5 8.9
2015-Jul-01 05:34N 34°39' E 033°19'9 8.6
2015-Jul-01 04:33N 34°35' E 033°09'9 8.8
2015-Jul-01 03:34N 34°32' E 032°59'9 9.1
2015-Jul-01 02:33N 34°32' E 032°48'308 9.0
2015-Jun-29 16:31N 36°55' E 027°12'9 8.8
2015-Jun-29 15:32N 36°56' E 027°02'  
Track history (hours):
 
Tides and Currents Weather Stations Pressure Air Temp Water Temp Dewpoint Dewpoint Depression Visibility Wind Speed Wind Dir Waves Ship Positions

Tara

Last reported at 2015-Jul-01 11:34 UTC. Time now 2015-Jul-08 06:34 UTC.
Position N 34°48' E 034°26'.

Length 82 m; draft 7 m.

Type: Ship. MMSI: 515410000.

Date/timePositionNaut miles runAvg speedWind from/ knotsBaromVisibWave heightAir tempDewpointWater temp
2015-Jul-01 11:34N 34°48' E 034°26'20 9.6
2015-Jul-01 09:26N 34°45' E 034°01'31 9.3
2015-Jul-01 06:04N 34°40' E 033°24'5 8.9
2015-Jul-01 05:34N 34°39' E 033°19'9 8.6
2015-Jul-01 04:33N 34°35' E 033°09'9 8.8
2015-Jul-01 03:34N 34°32' E 032°59'9 9.1
2015-Jul-01 02:33N 34°32' E 032°48'308 9.0
2015-Jun-29 16:31N 36°55' E 027°12'9 8.8
2015-Jun-29 15:32N 36°56' E 027°02'  

Dump ship's entire track history